Time;durP1;ratioP1;P1;durP2;ratioP2;P2;SDS_P1;SDS_P2;PMS_P1;PMS_P2;Temp;Humidity;BMP_temperature;BMP_pressure;BME280_temperature;BME280_humidity;BME280_pressure;Samples;Min_cycle;Max_cycle;Signal;HPM_P1;HPM_P2
2023/12/22 00:00:31;;;;;;;;;;;;;;;7.96;73.39;98078.97;5460256;32;35361;-70
2023/12/22 00:03:33;;;;;;;;;;;;;;;7.86;75.36;98086.56;5450659;32;35247;-73
2023/12/22 00:06:36;;;;;;;;;;;;;;;7.96;75.76;98073.72;5460947;32;34750;-69
2023/12/22 00:09:38;;;;;;;;;;;;;;;8.04;76.05;98082.75;5462728;32;34676;-73
2023/12/22 00:12:40;;;;;;;;;;;;;;;8.28;75.03;98074.22;5461129;32;35231;-72
2023/12/22 00:15:42;;;;;;;;;;;;;;;8.44;73.71;98056.59;5460292;32;34895;-71
2023/12/22 00:18:45;;;;;;;;;;;;;;;8.38;74.22;98051.78;5464424;32;35061;-73
2023/12/22 00:21:47;;;;;;;;;;;;;;;8.27;73.85;98081.25;5443973;32;34734;-69
2023/12/22 00:24:49;;;;;;;;;;;;;;;8.22;72.61;98090.34;5464398;32;34536;-72
2023/12/22 00:27:51;;;;;;;;;;;;;;;8.17;72.11;98089.78;5460232;32;35056;-70
2023/12/22 00:30:53;;;;;;;;;;;;;;;8.11;73.01;98104.09;5448943;32;34819;-69
2023/12/22 00:33:56;;;;;;;;;;;;;;;8.39;71.36;98113.66;5446603;32;35666;-73
2023/12/22 00:36:58;;;;;;;;;;;;;;;8.45;71.46;98131.56;5459503;32;34946;-71
2023/12/22 00:40:00;;;;;;;;;;;;;;;8.62;70.79;98144.38;5464637;32;34982;-69
2023/12/22 00:43:03;;;;;;;;;;;;;;;8.78;69.90;98156.44;5460307;32;34793;-73
2023/12/22 00:46:05;;;;;;;;;;;;;;;8.63;70.61;98164.41;5449829;32;34942;-70
2023/12/22 00:49:07;;;;;;;;;;;;;;;7.87;73.73;98166.72;5457905;32;34802;-69
2023/12/22 00:52:09;;;;;;;;;;;;;;;7.94;74.61;98164.53;5459816;32;35347;-70
2023/12/22 00:55:11;;;;;;;;;;;;;;;7.99;74.62;98167.72;5446001;32;35402;-70
2023/12/22 00:58:13;;;;;;;;;;;;;;;7.95;76.15;98169.66;5443635;32;35316;-69
2023/12/22 01:01:16;;;;;;;;;;;;;;;7.64;77.62;98189.06;5464554;32;35170;-71
2023/12/22 01:04:18;;;;;;;;;;;;;;;7.69;77.53;98187.00;5460014;32;36058;-73
2023/12/22 01:07:20;;;;;;;;;;;;;;;7.82;77.75;98137.38;5463596;32;34755;-73
2023/12/22 01:10:23;;;;;;;;;;;;;;;8.18;75.04;98125.47;5458908;32;35636;-73
2023/12/22 01:13:25;;;;;;;;;;;;;;;8.59;72.46;98100.06;5459382;32;34641;-71
2023/12/22 01:16:27;;;;;;;;;;;;;;;8.75;71.23;98101.66;5445858;32;34408;-73
2023/12/22 01:19:30;;;;;;;;;;;;;;;8.66;70.78;98139.78;5459502;32;35424;-69
2023/12/22 01:22:33;;;;;;;;;;;;;;;7.77;74.45;98153.38;5450146;32;35103;-70
2023/12/22 01:25:35;;;;;;;;;;;;;;;7.64;75.53;98149.00;5461799;32;35063;-72
2023/12/22 01:28:38;;;;;;;;;;;;;;;8.26;73.23;98146.78;5451172;32;35436;-71
2023/12/22 01:31:40;;;;;;;;;;;;;;;7.60;76.07;98156.22;5461494;32;35033;-69
2023/12/22 01:34:42;;;;;;;;;;;;;;;7.81;75.98;98164.47;5464115;32;34711;-69
2023/12/22 01:37:45;;;;;;;;;;;;;;;7.71;76.40;98163.38;5463494;32;35135;-72
2023/12/22 01:40:47;;;;;;;;;;;;;;;7.73;75.68;98171.94;5461445;32;34174;-72
2023/12/22 01:43:49;;;;;;;;;;;;;;;7.80;75.73;98150.56;5466163;32;34290;-69
2023/12/22 01:46:52;;;;;;;;;;;;;;;8.01;74.95;98153.59;5447176;32;34771;-73
2023/12/22 01:49:54;;;;;;;;;;;;;;;8.00;74.46;98149.28;5465332;32;34364;-69
2023/12/22 01:52:56;;;;;;;;;;;;;;;8.14;73.46;98151.84;5461744;32;34870;-72
2023/12/22 01:55:59;;;;;;;;;;;;;;;8.23;71.86;98142.56;5462107;32;34788;-72
2023/12/22 01:59:01;;;;;;;;;;;;;;;8.13;72.57;98160.66;5464839;32;34724;-72
2023/12/22 02:02:03;;;;;;;;;;;;;;;8.18;72.01;98146.41;5461735;32;34752;-73
2023/12/22 02:05:06;;;;;;;;;;;;;;;7.85;72.47;98130.16;5448324;32;34500;-71
2023/12/22 02:08:08;;;;;;;;;;;;;;;7.77;73.32;98118.53;5460388;32;35477;-72
2023/12/22 02:11:10;;;;;;;;;;;;;;;7.65;72.57;98067.84;5451465;32;34206;-71
2023/12/22 02:14:12;;;;;;;;;;;;;;;8.11;70.86;98070.97;5461891;32;34506;-72
2023/12/22 02:17:15;;;;;;;;;;;;;;;8.09;69.48;98085.06;5448140;32;34151;-70
2023/12/22 02:20:18;;;;;;;;;;;;;;;8.05;69.22;98071.38;5450839;32;34869;-68
2023/12/22 02:23:20;;;;;;;;;;;;;;;7.76;69.88;98067.16;5460398;32;34929;-69
2023/12/22 02:26:25;;;;;;;;;;;;;;;7.72;69.12;98060.44;5451322;32;34221;-70
2023/12/22 02:29:27;;;;;;;;;;;;;;;7.98;68.56;98083.13;5420745;32;836739;-69
2023/12/22 02:32:34;;;;;;;;;;;;;;;8.18;67.50;98065.28;5465223;32;34940;-71
2023/12/22 02:35:37;;;;;;;;;;;;;;;7.76;68.27;98072.41;5446398;32;35554;-72
2023/12/22 02:38:39;;;;;;;;;;;;;;;7.71;69.11;98079.69;5446227;32;35199;-70
2023/12/22 02:41:42;;;;;;;;;;;;;;;8.33;67.41;98093.09;5465034;32;35603;-71
2023/12/22 02:44:44;;;;;;;;;;;;;;;8.30;67.28;98109.81;5447464;32;34374;-70
2023/12/22 02:47:46;;;;;;;;;;;;;;;8.41;67.08;98127.47;5465241;32;35590;-71
2023/12/22 02:50:49;;;;;;;;;;;;;;;7.69;69.75;98128.66;5458210;32;35481;-72
2023/12/22 02:53:51;;;;;;;;;;;;;;;8.07;70.06;98126.19;5464709;32;34948;-69
2023/12/22 02:56:53;;;;;;;;;;;;;;;7.25;72.20;98148.75;5461493;32;34655;-69
2023/12/22 02:59:56;;;;;;;;;;;;;;;7.24;73.73;98138.41;5461547;32;34215;-73
2023/12/22 03:02:58;;;;;;;;;;;;;;;7.37;72.94;98096.69;5465135;32;34947;-73
2023/12/22 03:06:00;;;;;;;;;;;;;;;8.08;69.55;98084.22;5446646;32;35481;-72
2023/12/22 03:09:02;;;;;;;;;;;;;;;7.83;69.95;98095.44;5465188;32;34209;-69
2023/12/22 03:12:04;;;;;;;;;;;;;;;8.06;70.68;98099.19;5461088;32;34995;-72
2023/12/22 03:15:07;;;;;;;;;;;;;;;8.20;69.17;98107.94;5465562;32;34879;-69
2023/12/22 03:18:09;;;;;;;;;;;;;;;8.02;69.67;98102.94;5461446;32;34946;-72
2023/12/22 03:21:19;;;;;;;;;;;;;;;7.66;72.55;98113.13;5434249;32;34294;-69
2023/12/22 03:24:22;;;;;;;;;;;;;;;8.19;69.46;98120.16;5450614;32;34926;-69
2023/12/22 03:27:27;;;;;;;;;;;;;;;7.46;72.57;98122.22;5460930;32;34867;-73
2023/12/22 03:30:29;;;;;;;;;;;;;;;7.17;73.32;98140.56;5450342;32;34756;-69
2023/12/22 03:33:32;;;;;;;;;;;;;;;7.52;71.29;98146.22;5460157;32;35593;-71
2023/12/22 03:36:34;;;;;;;;;;;;;;;7.37;71.47;98147.16;5462436;32;34704;-69
2023/12/22 03:39:36;;;;;;;;;;;;;;;7.12;71.52;98167.88;5448977;32;35721;-72
2023/12/22 03:42:38;;;;;;;;;;;;;;;7.23;70.23;98173.31;5461051;32;34891;-69
2023/12/22 03:45:40;;;;;;;;;;;;;;;7.23;69.17;98179.37;5464518;32;34677;-71
2023/12/22 03:48:42;;;;;;;;;;;;;;;7.66;67.73;98165.44;5458716;32;35122;-72
2023/12/22 03:51:45;;;;;;;;;;;;;;;7.30;67.32;98174.63;5454578;32;34753;-69
2023/12/22 03:54:47;;;;;;;;;;;;;;;6.92;66.96;98189.97;5461370;32;34787;-70
2023/12/22 03:57:49;;;;;;;;;;;;;;;7.30;64.07;98190.28;5461871;32;34774;-72
2023/12/22 04:00:51;;;;;;;;;;;;;;;6.98;64.31;98198.28;5463357;32;34353;-68
2023/12/22 04:03:54;;;;;;;;;;;;;;;7.32;62.17;98196.25;5459212;32;34604;-73
2023/12/22 04:06:56;;;;;;;;;;;;;;;7.56;61.04;98196.53;5463041;32;35249;-71
2023/12/22 04:09:59;;;;;;;;;;;;;;;7.23;61.27;98196.81;5461121;32;35111;-69
2023/12/22 04:13:01;;;;;;;;;;;;;;;7.46;60.43;98206.69;5464672;32;35400;-70
2023/12/22 04:16:05;;;;;;;;;;;;;;;7.45;59.94;98212.88;5461111;32;34463;-68
2023/12/22 04:19:07;;;;;;;;;;;;;;;7.15;60.59;98217.31;5461230;32;35137;-71
2023/12/22 04:22:12;;;;;;;;;;;;;;;7.17;59.18;98223.31;5464393;32;34349;-72
2023/12/22 04:25:15;;;;;;;;;;;;;;;7.27;59.64;98234.88;5458668;32;34789;-73
2023/12/22 04:28:18;;;;;;;;;;;;;;;7.46;58.65;98225.00;5464316;32;34703;-71
2023/12/22 04:31:20;;;;;;;;;;;;;;;6.79;59.45;98252.50;5448092;32;34867;-70
2023/12/22 04:34:22;;;;;;;;;;;;;;;6.42;60.41;98259.81;5465128;32;34588;-69
2023/12/22 04:37:24;;;;;;;;;;;;;;;6.55;61.05;98274.78;5460371;32;35111;-72
2023/12/22 04:40:28;;;;;;;;;;;;;;;6.64;61.43;98275.12;5460431;32;35163;-69
2023/12/22 04:43:30;;;;;;;;;;;;;;;6.08;64.42;98268.66;5464540;32;34170;-69
2023/12/22 04:46:32;;;;;;;;;;;;;;;6.22;64.91;98258.31;5444980;32;34568;-70
2023/12/22 04:49:34;;;;;;;;;;;;;;;6.01;65.41;98253.44;5462680;32;35030;-69
2023/12/22 04:52:37;;;;;;;;;;;;;;;6.18;64.89;98246.38;5458337;32;34375;-71
2023/12/22 04:55:39;;;;;;;;;;;;;;;6.80;63.44;98248.97;5465746;32;34645;-72
2023/12/22 04:58:41;;;;;;;;;;;;;;;6.85;62.53;98248.72;5462423;32;34498;-72
2023/12/22 05:01:45;;;;;;;;;;;;;;;6.75;62.61;98256.22;5451900;32;34782;-70
2023/12/22 05:04:47;;;;;;;;;;;;;;;6.61;62.39;98275.28;5463440;32;34344;-69
2023/12/22 05:07:50;;;;;;;;;;;;;;;6.44;62.58;98268.41;5444930;32;34251;-70
2023/12/22 05:10:52;;;;;;;;;;;;;;;6.38;62.78;98266.16;5467560;32;35532;-70
2023/12/22 05:13:54;;;;;;;;;;;;;;;6.45;62.48;98272.69;5447659;32;35037;-71
2023/12/22 05:16:58;;;;;;;;;;;;;;;6.54;61.81;98273.09;5450701;32;35295;-70
2023/12/22 05:20:00;;;;;;;;;;;;;;;6.46;62.12;98265.72;5460802;32;34911;-72
2023/12/22 05:23:02;;;;;;;;;;;;;;;6.56;61.17;98274.69;5463028;32;35481;-69
2023/12/22 05:26:05;;;;;;;;;;;;;;;6.24;60.84;98281.69;5451444;32;35077;-72
2023/12/22 05:29:08;;;;;;;;;;;;;;;6.56;60.36;98286.91;5462536;32;34962;-69
2023/12/22 05:32:10;;;;;;;;;;;;;;;6.20;61.17;98288.03;5467603;32;35485;-73
2023/12/22 05:35:12;;;;;;;;;;;;;;;5.92;62.18;98302.53;5462718;32;35464;-72
2023/12/22 05:38:14;;;;;;;;;;;;;;;6.43;60.99;98295.41;5464900;32;34355;-70
2023/12/22 05:41:16;;;;;;;;;;;;;;;6.43;60.55;98313.69;5448532;32;34397;-71
2023/12/22 05:44:19;;;;;;;;;;;;;;;6.68;59.90;98321.00;5461800;32;35126;-72
2023/12/22 05:47:21;;;;;;;;;;;;;;;6.47;60.35;98312.59;5466991;32;35389;-70
2023/12/22 05:50:23;;;;;;;;;;;;;;;6.65;59.33;98321.16;5459838;32;35323;-72
2023/12/22 05:53:25;;;;;;;;;;;;;;;6.64;58.02;98308.22;5465211;32;34314;-69
2023/12/22 05:56:28;;;;;;;;;;;;;;;6.04;59.41;98314.06;5461811;32;34422;-68
2023/12/22 05:59:32;;;;;;;;;;;;;;;6.58;58.71;98312.00;5464246;32;34972;-72
2023/12/22 06:02:34;;;;;;;;;;;;;;;6.08;58.20;98305.19;5449128;32;34630;-71
2023/12/22 06:05:36;;;;;;;;;;;;;;;5.97;58.54;98316.16;5462040;32;35298;-72
2023/12/22 06:08:38;;;;;;;;;;;;;;;6.46;56.66;98326.56;5464696;32;34364;-73
2023/12/22 06:11:40;;;;;;;;;;;;;;;6.15;56.49;98326.56;5446972;32;35361;-69
2023/12/22 06:14:42;;;;;;;;;;;;;;;6.38;55.63;98343.59;5464993;32;34855;-69
2023/12/22 06:17:44;;;;;;;;;;;;;;;6.37;55.20;98336.66;5447043;32;34569;-71
2023/12/22 06:20:46;;;;;;;;;;;;;;;5.98;55.89;98364.78;5464344;32;34907;-68
2023/12/22 06:23:48;;;;;;;;;;;;;;;6.59;54.52;98376.31;5462988;32;34733;-72
2023/12/22 06:26:50;;;;;;;;;;;;;;;5.99;55.63;98370.87;5462557;32;34440;-69
2023/12/22 06:29:52;;;;;;;;;;;;;;;6.31;54.49;98377.00;5465834;32;35095;-69
2023/12/22 06:32:53;;;;;;;;;;;;;;;6.00;54.68;98387.34;5455433;32;34826;-73
2023/12/22 06:35:55;;;;;;;;;;;;;;;6.06;54.28;98390.50;5466735;32;35159;-70
2023/12/22 06:38:58;;;;;;;;;;;;;;;6.46;53.12;98381.38;5460952;32;34466;-70
2023/12/22 06:42:00;;;;;;;;;;;;;;;6.49;52.06;98402.06;5464467;32;34533;-71
2023/12/22 06:45:02;;;;;;;;;;;;;;;6.09;52.98;98418.16;5465397;32;34955;-71
2023/12/22 06:48:04;;;;;;;;;;;;;;;6.06;53.26;98410.50;5461967;32;34449;-72
2023/12/22 06:51:06;;;;;;;;;;;;;;;6.58;51.26;98403.34;5464602;32;34688;-70
2023/12/22 06:54:08;;;;;;;;;;;;;;;6.19;51.94;98393.28;5463261;32;34604;-69
2023/12/22 06:57:14;;;;;;;;;;;;;;;6.62;50.84;98377.91;5466527;32;34955;-73
2023/12/22 07:00:18;;;;;;;;;;;;;;;6.35;50.86;98409.81;5450464;32;34481;-71
2023/12/22 07:03:20;;;;;;;;;;;;;;;6.18;50.12;98407.22;5465391;32;35324;-69
2023/12/22 07:06:23;;;;;;;;;;;;;;;6.30;50.71;98419.62;5466972;32;35492;-70
2023/12/22 07:09:28;;;;;;;;;;;;;;;6.39;49.80;98418.31;5464914;32;35618;-70
2023/12/22 07:12:30;;;;;;;;;;;;;;;6.30;49.50;98424.84;5468379;32;35269;-71
2023/12/22 07:15:34;;;;;;;;;;;;;;;6.06;50.22;98431.37;5465510;32;35742;-73
2023/12/22 07:18:37;;;;;;;;;;;;;;;6.86;48.50;98418.34;5470100;32;34786;-73
2023/12/22 07:21:40;;;;;;;;;;;;;;;6.57;49.51;98433.00;5440668;32;34772;-69
2023/12/22 07:24:44;;;;;;;;;;;;;;;6.30;50.06;98444.88;5453778;32;34430;-71
2023/12/22 07:27:46;;;;;;;;;;;;;;;6.59;48.48;98430.31;5470123;32;34796;-73
2023/12/22 07:30:49;;;;;;;;;;;;;;;6.70;48.54;98436.63;5466559;32;34236;-70
2023/12/22 07:33:53;;;;;;;;;;;;;;;7.00;47.91;98430.63;5461928;32;35023;-72
2023/12/22 07:36:55;;;;;;;;;;;;;;;6.82;48.61;98429.88;5450029;32;34727;-73
2023/12/22 07:40:08;;;;;;;;;;;;;;;6.59;48.85;98427.69;5467911;32;35233;-73
2023/12/22 07:43:10;;;;;;;;;;;;;;;6.94;48.03;98429.19;5452172;32;35473;-71
2023/12/22 07:46:19;;;;;;;;;;;;;;;6.48;49.29;98429.09;5452834;32;35076;-73
2023/12/22 07:49:21;;;;;;;;;;;;;;;6.61;49.24;98425.81;5469511;32;34929;-70
2023/12/22 07:52:23;;;;;;;;;;;;;;;6.73;48.92;98451.28;5465043;32;34968;-71
2023/12/22 07:55:25;;;;;;;;;;;;;;;7.38;47.82;98444.16;5470850;32;34414;-69
2023/12/22 07:58:27;;;;;;;;;;;;;;;6.88;48.45;98442.59;5466704;32;34633;-70
2023/12/22 08:01:29;;;;;;;;;;;;;;;7.49;48.02;98452.25;5454655;32;35148;-72
2023/12/22 08:04:32;;;;;;;;;;;;;;;7.58;47.61;98448.25;5442918;32;36918;-72
2023/12/22 08:07:34;;;;;;;;;;;;;;;7.57;47.52;98449.19;5461563;32;34828;-71
2023/12/22 08:10:36;;;;;;;;;;;;;;;7.26;48.38;98450.91;5470802;32;34218;-69
2023/12/22 08:13:42;;;;;;;;;;;;;;;7.38;48.50;98451.16;5467038;32;34618;-71
2023/12/22 08:16:44;;;;;;;;;;;;;;;7.17;48.98;98451.44;5470222;32;34167;-72
2023/12/22 08:19:47;;;;;;;;;;;;;;;6.82;50.25;98449.91;5452504;32;35014;-71
2023/12/22 08:22:51;;;;;;;;;;;;;;;7.16;49.83;98443.69;5453179;32;35002;-70
2023/12/22 08:25:57;;;;;;;;;;;;;;;7.44;48.99;98445.59;5470584;32;36238;-73
2023/12/22 08:28:59;;;;;;;;;;;;;;;8.15;47.82;98464.91;5469746;32;34304;-73
2023/12/22 08:32:02;;;;;;;;;;;;;;;8.31;46.97;98458.78;5469216;32;34423;-71
2023/12/22 08:35:04;;;;;;;;;;;;;;;8.29;46.90;98455.41;5452518;32;34850;-72
2023/12/22 08:38:09;;;;;;;;;;;;;;;8.02;47.81;98463.97;5452617;32;33775;-68
2023/12/22 08:41:14;;;;;;;;;;;;;;;8.32;46.51;98455.22;5463599;32;35019;-72
2023/12/22 08:44:16;;;;;;;;;;;;;;;8.93;44.64;98465.41;5450767;32;36616;-72
2023/12/22 08:47:18;;;;;;;;;;;;;;;8.42;45.30;98485.16;5470335;32;34751;-69
2023/12/22 08:50:20;;;;;;;;;;;;;;;8.03;46.50;98478.72;5463723;32;34542;-72
2023/12/22 08:53:22;;;;;;;;;;;;;;;7.59;47.30;98483.91;5453649;32;34756;-73
2023/12/22 08:56:24;;;;;;;;;;;;;;;7.92;46.82;98475.91;5466834;32;33919;-70
2023/12/22 08:59:26;;;;;;;;;;;;;;;8.90;44.40;98486.56;5449936;32;34917;-72
2023/12/22 09:02:29;;;;;;;;;;;;;;;7.71;46.91;98491.06;5452103;32;34765;-72
2023/12/22 09:05:32;;;;;;;;;;;;;;;8.01;46.98;98501.53;5451241;32;34853;-72
2023/12/22 09:08:35;;;;;;;;;;;;;;;7.62;47.64;98488.12;5469278;32;35605;-73
2023/12/22 09:11:37;;;;;;;;;;;;;;;7.66;48.41;98498.31;5465951;32;36225;-73
2023/12/22 09:14:39;;;;;;;;;;;;;;;7.59;49.28;98513.50;5469745;32;35194;-72
2023/12/22 09:17:41;;;;;;;;;;;;;;;7.59;49.49;98495.22;5465481;32;34446;-73
2023/12/22 09:20:46;;;;;;;;;;;;;;;7.78;49.28;98504.63;5468301;32;34188;-70
2023/12/22 09:23:49;;;;;;;;;;;;;;;7.71;49.99;98496.28;5465569;32;34938;-74
2023/12/22 09:26:52;;;;;;;;;;;;;;;7.74;49.83;98493.50;5466522;32;34874;-73
2023/12/22 09:29:54;;;;;;;;;;;;;;;7.90;49.50;98480.38;5470107;32;34993;-69
2023/12/22 09:32:56;;;;;;;;;;;;;;;7.50;50.54;98480.06;5466859;32;34312;-71
2023/12/22 09:36:00;;;;;;;;;;;;;;;7.69;48.95;98466.78;5470461;32;35408;-73
2023/12/22 09:39:02;;;;;;;;;;;;;;;8.35;48.53;98463.75;5466021;32;34181;-70
2023/12/22 09:42:05;;;;;;;;;;;;;;;8.32;48.25;98471.75;5469855;32;35322;-70
2023/12/22 09:45:07;;;;;;;;;;;;;;;8.38;47.98;98470.59;5456637;32;35589;-71
2023/12/22 09:48:10;;;;;;;;;;;;;;;8.84;47.20;98484.31;5441677;32;34318;-74
2023/12/22 09:51:14;;;;;;;;;;;;;;;8.37;48.59;98488.06;5469090;32;34818;-70
2023/12/22 09:54:16;;;;;;;;;;;;;;;8.70;48.44;98483.50;5468796;32;34905;-70
2023/12/22 09:57:18;;;;;;;;;;;;;;;8.80;47.70;98476.75;5472758;32;35388;-72
2023/12/22 10:00:29;;;;;;;;;;;;;;;8.14;49.28;98485.94;5448656;32;34963;-72
2023/12/22 10:03:33;;;;;;;;;;;;;;;8.23;49.05;98479.31;5456051;32;33188;-69
2023/12/22 10:06:35;;;;;;;;;;;;;;;8.89;47.65;98479.66;5470879;32;35339;-70
2023/12/22 10:09:43;;;;;;;;;;;;;;;8.47;48.97;98484.87;5454285;32;36802;-70
2023/12/22 10:12:45;;;;;;;;;;;;;;;9.05;47.71;98474.25;5471391;32;34536;-71
2023/12/22 10:15:47;;;;;;;;;;;;;;;9.50;46.17;98480.12;5467257;32;34954;-71
2023/12/22 10:18:49;;;;;;;;;;;;;;;8.77;47.65;98482.19;5456344;32;34909;-69
2023/12/22 10:21:51;;;;;;;;;;;;;;;8.70;47.49;98486.13;5467938;32;33319;-72
2023/12/22 10:24:53;;;;;;;;;;;;;;;8.78;47.96;98478.63;5468874;32;34186;-69
2023/12/22 10:27:55;;;;;;;;;;;;;;;8.09;50.17;98486.22;5465772;32;35267;-70
2023/12/22 10:31:03;;;;;;;;;;;;;;;8.35;50.21;98470.72;5467111;32;35050;-69
2023/12/22 10:34:08;;;;;;;;;;;;;;;8.45;48.99;98461.44;5469743;32;34324;-73
2023/12/22 10:37:10;;;;;;;;;;;;;;;8.80;48.82;98443.53;5466786;32;35380;-74
2023/12/22 10:40:12;;;;;;;;;;;;;;;9.15;48.31;98451.78;5470803;32;34332;-72
2023/12/22 10:43:14;;;;;;;;;;;;;;;8.59;49.09;98443.09;5465651;32;33668;-73
2023/12/22 10:46:16;;;;;;;;;;;;;;;9.10;47.42;98414.56;5466551;32;35520;-73
2023/12/22 10:49:19;;;;;;;;;;;;;;;8.50;49.06;98424.47;5469780;32;34337;-70
2023/12/22 10:52:21;;;;;;;;;;;;;;;8.87;48.20;98429.09;5448173;32;34030;-74
2023/12/22 10:55:23;;;;;;;;;;;;;;;9.10;47.81;98422.41;5455361;32;33159;-70
2023/12/22 10:58:25;;;;;;;;;;;;;;;8.26;49.10;98432.88;5452596;32;35243;-72
2023/12/22 11:01:28;;;;;;;;;;;;;;;8.53;48.94;98432.16;5444115;32;34969;-71
2023/12/22 11:04:34;;;;;;;;;;;;;;;8.67;48.78;98440.81;5452588;32;35450;-72
2023/12/22 11:07:37;;;;;;;;;;;;;;;8.00;49.63;98420.53;5463625;32;34490;-70
2023/12/22 11:10:41;;;;;;;;;;;;;;;7.79;50.14;98433.94;5471249;32;34738;-70
2023/12/22 11:13:43;;;;;;;;;;;;;;;8.48;49.56;98452.53;5452518;32;34748;-71
2023/12/22 11:16:47;;;;;;;;;;;;;;;8.19;50.30;98444.66;5455912;32;35515;-70
2023/12/22 11:19:50;;;;;;;;;;;;;;;8.53;48.91;98446.09;5452411;32;34800;-72
2023/12/22 11:22:52;;;;;;;;;;;;;;;8.75;48.44;98439.50;5454185;32;35291;-73
2023/12/22 11:25:54;;;;;;;;;;;;;;;8.66;48.21;98433.91;5460510;32;34640;-73
2023/12/22 11:28:58;;;;;;;;;;;;;;;8.13;49.60;98432.78;5450046;32;35323;-75
2023/12/22 11:32:01;;;;;;;;;;;;;;;8.93;48.24;98420.00;5455979;32;34352;-73
2023/12/22 11:35:04;;;;;;;;;;;;;;;8.78;48.45;98419.22;5454009;32;35484;-74
2023/12/22 11:38:06;;;;;;;;;;;;;;;8.71;49.08;98433.63;5470012;32;35108;-74
2023/12/22 11:41:28;;;;;;;;;;;;;;;8.21;49.40;98414.00;5452358;32;34977;-71
2023/12/22 11:44:30;;;;;;;;;;;;;;;9.09;47.34;98405.00;5465549;32;35390;-71
2023/12/22 11:47:33;;;;;;;;;;;;;;;8.99;47.70;98443.22;5442770;32;35030;-72
2023/12/22 11:50:35;;;;;;;;;;;;;;;8.91;44.73;98403.56;5445860;32;34980;-73
2023/12/22 11:53:37;;;;;;;;;;;;;;;8.57;47.12;98413.56;5471229;32;34263;-70
2023/12/22 11:56:39;;;;;;;;;;;;;;;8.91;46.95;98421.91;5468039;32;34982;-72
2023/12/22 11:59:41;;;;;;;;;;;;;;;9.08;45.96;98408.56;5468090;32;34285;-74
2023/12/22 12:02:43;;;;;;;;;;;;;;;8.64;46.40;98421.88;5452702;32;35316;-70
2023/12/22 12:05:45;;;;;;;;;;;;;;;8.41;47.34;98410.19;5445970;32;34982;-72
2023/12/22 12:08:48;;;;;;;;;;;;;;;8.68;47.03;98429.41;5470184;32;34803;-74
2023/12/22 12:11:59;;;;;;;;;;;;;;;8.65;46.90;98418.31;5465809;32;34670;-70
2023/12/22 12:15:07;;;;;;;;;;;;;;;9.80;44.06;98427.44;5470246;32;35106;-70
2023/12/22 12:18:08;;;;;;;;;;;;;;;9.82;43.55;98443.91;5465331;32;34837;-73
2023/12/22 12:21:11;;;;;;;;;;;;;;;8.93;45.50;98443.59;5451826;32;34486;-69
2023/12/22 12:24:13;;;;;;;;;;;;;;;8.81;46.09;98441.75;5466598;32;34424;-70
2023/12/22 12:27:20;;;;;;;;;;;;;;;8.89;46.59;98447.38;5464998;32;34954;-73
2023/12/22 12:30:22;;;;;;;;;;;;;;;9.44;45.86;98439.41;5452641;32;35034;-73
2023/12/22 12:33:25;;;;;;;;;;;;;;;9.63;45.45;98441.66;5463862;32;35411;-73
2023/12/22 12:36:27;;;;;;;;;;;;;;;8.61;47.80;98441.22;5452821;32;35440;-71
2023/12/22 12:39:31;;;;;;;;;;;;;;;8.84;47.56;98439.78;5449852;32;34348;-70
2023/12/22 12:42:33;;;;;;;;;;;;;;;7.75;49.41;98426.34;5450452;32;35074;-72
2023/12/22 12:45:35;;;;;;;;;;;;;;;7.86;49.64;98426.56;5450386;32;34596;-74
2023/12/22 12:48:37;;;;;;;;;;;;;;;7.49;51.03;98444.41;5463444;32;34124;-72
2023/12/22 12:51:43;;;;;;;;;;;;;;;7.24;54.02;98458.00;5464268;32;34438;-69
2023/12/22 12:54:45;;;;;;;;;;;;;;;6.62;58.20;98480.56;5447593;32;35324;-69
2023/12/22 12:57:50;;;;;;;;;;;;;;;6.66;60.11;98518.62;5455604;32;34905;-70
2023/12/22 13:00:57;;;;;;;;;;;;;;;6.42;61.57;98486.84;5461910;32;35596;-73
2023/12/22 13:03:59;;;;;;;;;;;;;;;6.47;62.10;98490.06;5461130;32;34552;-73
2023/12/22 13:07:01;;;;;;;;;;;;;;;6.72;61.01;98492.22;5465250;32;34944;-70
2023/12/22 13:10:04;;;;;;;;;;;;;;;6.52;62.33;98479.38;5461237;32;35378;-72
2023/12/22 13:13:06;;;;;;;;;;;;;;;6.77;62.15;98512.84;5465776;32;35140;-72
2023/12/22 13:16:08;;;;;;;;;;;;;;;6.76;61.81;98513.75;5461094;32;34905;-74
2023/12/22 13:19:10;;;;;;;;;;;;;;;6.35;63.68;98535.03;5467783;32;35528;-70
2023/12/22 13:22:12;;;;;;;;;;;;;;;6.31;64.58;98540.50;5464272;32;34716;-70
2023/12/22 13:25:14;;;;;;;;;;;;;;;6.56;65.49;98519.19;5463857;32;35109;-73
2023/12/22 13:28:25;;;;;;;;;;;;;;;5.64;67.05;98508.16;5466977;32;34654;-71
2023/12/22 13:31:27;;;;;;;;;;;;;;;6.05;65.71;98482.66;5450263;32;35473;-69
2023/12/22 13:34:29;;;;;;;;;;;;;;;6.19;66.01;98487.19;5453717;32;34900;-69
2023/12/22 13:37:31;;;;;;;;;;;;;;;6.53;64.27;98465.41;5448986;32;35751;-69
2023/12/22 13:40:33;;;;;;;;;;;;;;;6.29;64.32;98457.09;5451953;32;34795;-69
2023/12/22 13:43:35;;;;;;;;;;;;;;;6.49;64.22;98456.88;5464316;32;34960;-72
2023/12/22 13:46:40;;;;;;;;;;;;;;;6.70;62.99;98452.28;5448002;32;35111;-72
2023/12/22 13:49:43;;;;;;;;;;;;;;;6.65;63.08;98459.53;5449780;32;35868;-73
2023/12/22 13:52:45;;;;;;;;;;;;;;;6.53;62.88;98460.19;5446846;32;34695;-73
2023/12/22 13:55:54;;;;;;;;;;;;;;;6.71;61.76;98442.69;5466741;32;35853;-73
2023/12/22 13:58:56;;;;;;;;;;;;;;;6.89;61.51;98451.28;5448007;32;34956;-72
2023/12/22 14:01:58;;;;;;;;;;;;;;;7.14;59.52;98432.47;5463545;32;35634;-73
2023/12/22 14:05:01;;;;;;;;;;;;;;;6.67;59.47;98435.94;5452146;32;35422;-71
2023/12/22 14:08:06;;;;;;;;;;;;;;;6.89;57.96;98441.69;5462539;32;35371;-72
2023/12/22 14:11:08;;;;;;;;;;;;;;;7.15;55.12;98428.94;5450974;32;33597;-73
2023/12/22 14:14:11;;;;;;;;;;;;;;;7.78;52.97;98455.78;5447838;32;34737;-71
2023/12/22 14:17:15;;;;;;;;;;;;;;;7.25;55.00;98495.44;5451092;32;34329;-72
2023/12/22 14:20:19;;;;;;;;;;;;;;;6.53;60.17;98517.59;5462715;32;34663;-71
2023/12/22 14:23:21;;;;;;;;;;;;;;;5.57;66.17;98512.00;5463131;32;35138;-74
2023/12/22 14:26:23;;;;;;;;;;;;;;;5.37;70.44;98503.38;5465229;32;34885;-70
2023/12/22 14:29:25;;;;;;;;;;;;;;;5.00;72.63;98495.59;5462238;32;34857;-72
2023/12/22 14:32:29;;;;;;;;;;;;;;;4.92;73.21;98505.53;5450888;32;35326;-70
2023/12/22 14:35:31;;;;;;;;;;;;;;;5.39;71.55;98500.69;5462131;32;35132;-73
2023/12/22 14:38:33;;;;;;;;;;;;;;;4.99;71.09;98467.88;5466064;32;34939;-71
2023/12/22 14:41:35;;;;;;;;;;;;;;;5.07;71.14;98481.38;5461937;32;35698;-70
2023/12/22 14:44:38;;;;;;;;;;;;;;;5.10;70.89;98483.84;5462056;32;35071;-70
2023/12/22 14:47:40;;;;;;;;;;;;;;;5.39;69.68;98474.63;5465225;32;34365;-73
2023/12/22 14:50:42;;;;;;;;;;;;;;;5.36;68.53;98499.09;5459538;32;34248;-70
2023/12/22 14:53:44;;;;;;;;;;;;;;;5.24;68.39;98525.72;5436535;32;35000;-69
2023/12/22 14:56:46;;;;;;;;;;;;;;;5.53;66.78;98536.50;5442859;32;34792;-72
2023/12/22 14:59:48;;;;;;;;;;;;;;;5.85;65.80;98534.94;5465775;32;34523;-69
2023/12/22 15:02:51;;;;;;;;;;;;;;;5.77;65.68;98526.66;5445783;32;34803;-73
2023/12/22 15:05:53;;;;;;;;;;;;;;;5.59;64.92;98546.63;5460278;32;34877;-72
2023/12/22 15:08:56;;;;;;;;;;;;;;;5.55;64.91;98550.31;5465539;32;34426;-71
2023/12/22 15:11:58;;;;;;;;;;;;;;;5.68;64.81;98538.37;5461854;32;34701;-73
2023/12/22 15:15:00;;;;;;;;;;;;;;;5.96;63.74;98538.75;5466269;32;34713;-70
2023/12/22 15:18:02;;;;;;;;;;;;;;;5.78;63.67;98529.19;5460888;32;35757;-70
2023/12/22 15:21:23;;;;;;;;;;;;;;;6.24;59.52;98493.00;5466340;32;34203;-72
2023/12/22 15:24:26;;;;;;;;;;;;;;;6.31;58.36;98481.34;5463153;32;35785;-70
2023/12/22 15:27:28;;;;;;;;;;;;;;;6.46;57.89;98524.91;5462044;32;34266;-72
2023/12/22 15:30:30;;;;;;;;;;;;;;;6.14;56.23;98546.56;5466343;32;35599;-71
2023/12/22 15:33:32;;;;;;;;;;;;;;;6.34;56.44;98569.03;5446588;32;34699;-71
2023/12/22 15:36:34;;;;;;;;;;;;;;;6.13;56.69;98570.97;5466038;32;35282;-73
2023/12/22 15:39:36;;;;;;;;;;;;;;;5.87;57.17;98564.41;5465063;32;35367;-71
2023/12/22 15:42:38;;;;;;;;;;;;;;;5.79;58.58;98572.56;5464296;32;34924;-70
2023/12/22 15:45:40;;;;;;;;;;;;;;;5.98;59.61;98568.19;5464639;32;35583;-69
2023/12/22 15:48:42;;;;;;;;;;;;;;;5.77;59.88;98550.12;5461366;32;34715;-71
2023/12/22 15:51:44;;;;;;;;;;;;;;;6.09;59.22;98535.53;5461055;32;34372;-74
2023/12/22 15:54:46;;;;;;;;;;;;;;;5.95;59.15;98562.28;5461173;32;35487;-70
2023/12/22 15:57:48;;;;;;;;;;;;;;;6.34;57.57;98588.16;5466269;32;34751;-73
2023/12/22 16:00:50;;;;;;;;;;;;;;;5.61;60.24;98599.56;5462060;32;34662;-72
2023/12/22 16:03:55;;;;;;;;;;;;;;;6.11;59.02;98599.72;5462771;32;36273;-69